CA-0643 weather

CLOSED Bowden Airport
Innisfail, Alberta, Canada

Public forecast

Using degrees Celsius for public forecast. Weather courtesy of forecast.io.

Closest aviation weather report (METAR) to Bowden Airport

Closest report is Red Deer Regional Airport, 12.7 nm (23.5 km) NNE. Retrieved 2020/08/05 03:00 UTC (47 minutes ago):

CYQF 050300Z 08004KT 15SM FEW290 18/15 A3002 RMK CI2 SLP171 DENSITY ALT 4000FT

Closest aviation forecast (TAF) to Bowden Airport

Closest forecast is Red Deer Regional Airport, 12.7 nm (23.5 km) NNE. Retrieved 2020-08-05 00:42 UTC (3 hours ago):

TAF CYQF 042338Z 0500/0512 15008KT P6SM FEW290 FM050800 20006KT P6SM SKC PROB30 0511/0512 1SM BR RMK NXT FCST BY 050600Z